sensor_id;sensor_type;location;lat;lon;timestamp;temperature;humidity
16200;DHT22;8207;52.494;4.654;2023-06-26T00:01:09;23.90;99.90
16200;DHT22;8207;52.494;4.654;2023-06-26T00:03:36;23.90;99.90
16200;DHT22;8207;52.494;4.654;2023-06-26T00:06:03;23.90;99.90
16200;DHT22;8207;52.494;4.654;2023-06-26T00:08:31;23.90;99.90
16200;DHT22;8207;52.494;4.654;2023-06-26T00:10:58;23.90;99.90
16200;DHT22;8207;52.494;4.654;2023-06-26T00:13:26;23.90;99.90
16200;DHT22;8207;52.494;4.654;2023-06-26T00:15:53;23.90;99.90
16200;DHT22;8207;52.494;4.654;2023-06-26T00:18:20;23.80;99.90
16200;DHT22;8207;52.494;4.654;2023-06-26T00:20:48;23.80;99.90
16200;DHT22;8207;52.494;4.654;2023-06-26T00:23:17;23.80;99.90
16200;DHT22;8207;52.494;4.654;2023-06-26T00:25:44;23.80;99.90
16200;DHT22;8207;52.494;4.654;2023-06-26T00:28:11;23.60;99.90
16200;DHT22;8207;52.494;4.654;2023-06-26T00:30:39;23.60;99.90
16200;DHT22;8207;52.494;4.654;2023-06-26T00:33:06;23.40;99.90
16200;DHT22;8207;52.494;4.654;2023-06-26T00:35:33;23.40;99.90
16200;DHT22;8207;52.494;4.654;2023-06-26T00:38:01;23.30;99.90
16200;DHT22;8207;52.494;4.654;2023-06-26T00:40:28;23.20;99.90
16200;DHT22;8207;52.494;4.654;2023-06-26T00:42:55;23.10;99.90
16200;DHT22;8207;52.494;4.654;2023-06-26T00:45:22;23.00;99.90
16200;DHT22;8207;52.494;4.654;2023-06-26T00:47:51;22.90;99.90
16200;DHT22;8207;52.494;4.654;2023-06-26T00:50:18;22.80;99.90
16200;DHT22;8207;52.494;4.654;2023-06-26T00:52:46;22.70;99.90
16200;DHT22;8207;52.494;4.654;2023-06-26T00:55:13;22.70;99.90
16200;DHT22;8207;52.494;4.654;2023-06-26T00:57:40;22.60;99.90
16200;DHT22;8207;52.494;4.654;2023-06-26T01:00:09;22.50;99.90
16200;DHT22;8207;52.494;4.654;2023-06-26T01:02:36;22.40;99.90
16200;DHT22;8207;52.494;4.654;2023-06-26T01:05:06;22.30;99.90
16200;DHT22;8207;52.494;4.654;2023-06-26T01:07:36;22.20;99.90
16200;DHT22;8207;52.494;4.654;2023-06-26T01:10:04;22.20;99.90
16200;DHT22;8207;52.494;4.654;2023-06-26T01:12:32;22.10;99.90
16200;DHT22;8207;52.494;4.654;2023-06-26T01:14:59;22.00;99.90
16200;DHT22;8207;52.494;4.654;2023-06-26T01:17:27;22.00;99.90
16200;DHT22;8207;52.494;4.654;2023-06-26T01:19:58;21.90;99.90
16200;DHT22;8207;52.494;4.654;2023-06-26T01:22:31;21.80;99.90
16200;DHT22;8207;52.494;4.654;2023-06-26T01:25:15;21.80;99.90
16200;DHT22;8207;52.494;4.654;2023-06-26T01:27:48;21.70;99.90
16200;DHT22;8207;52.494;4.654;2023-06-26T01:30:16;21.70;99.90
16200;DHT22;8207;52.494;4.654;2023-06-26T01:32:44;21.70;99.90
16200;DHT22;8207;52.494;4.654;2023-06-26T01:35:11;21.60;99.90
16200;DHT22;8207;52.494;4.654;2023-06-26T01:37:39;21.50;99.90
16200;DHT22;8207;52.494;4.654;2023-06-26T01:40:07;21.50;99.90
16200;DHT22;8207;52.494;4.654;2023-06-26T01:42:35;21.50;99.90
16200;DHT22;8207;52.494;4.654;2023-06-26T01:45:08;21.50;99.90
16200;DHT22;8207;52.494;4.654;2023-06-26T01:47:38;21.40;99.90
16200;DHT22;8207;52.494;4.654;2023-06-26T01:50:12;21.40;99.90
16200;DHT22;8207;52.494;4.654;2023-06-26T01:52:42;21.40;99.90
16200;DHT22;8207;52.494;4.654;2023-06-26T01:55:16;21.40;99.90
16200;DHT22;8207;52.494;4.654;2023-06-26T01:57:45;21.30;99.90
16200;DHT22;8207;52.494;4.654;2023-06-26T02:00:16;21.20;99.90
16200;DHT22;8207;52.494;4.654;2023-06-26T02:02:44;21.20;99.90
16200;DHT22;8207;52.494;4.654;2023-06-26T02:05:12;21.10;99.90
16200;DHT22;8207;52.494;4.654;2023-06-26T02:07:39;21.10;99.90
16200;DHT22;8207;52.494;4.654;2023-06-26T02:10:08;21.10;99.90
16200;DHT22;8207;52.494;4.654;2023-06-26T02:12:36;21.00;99.90
16200;DHT22;8207;52.494;4.654;2023-06-26T02:15:04;21.00;99.90
16200;DHT22;8207;52.494;4.654;2023-06-26T02:17:32;20.90;99.90
16200;DHT22;8207;52.494;4.654;2023-06-26T02:19:59;20.90;99.90
16200;DHT22;8207;52.494;4.654;2023-06-26T02:22:26;20.80;99.90
16200;DHT22;8207;52.494;4.654;2023-06-26T02:24:54;20.80;99.90
16200;DHT22;8207;52.494;4.654;2023-06-26T02:27:21;20.70;99.90
16200;DHT22;8207;52.494;4.654;2023-06-26T02:29:48;20.70;99.90
16200;DHT22;8207;52.494;4.654;2023-06-26T02:32:15;20.60;99.90
16200;DHT22;8207;52.494;4.654;2023-06-26T02:34:43;20.60;99.90
16200;DHT22;8207;52.494;4.654;2023-06-26T02:37:10;20.60;99.90
16200;DHT22;8207;52.494;4.654;2023-06-26T02:39:37;20.60;99.90
16200;DHT22;8207;52.494;4.654;2023-06-26T02:42:05;20.50;99.90
16200;DHT22;8207;52.494;4.654;2023-06-26T02:44:32;20.40;99.90
16200;DHT22;8207;52.494;4.654;2023-06-26T02:46:59;20.40;99.90
16200;DHT22;8207;52.494;4.654;2023-06-26T02:49:26;20.40;99.90
16200;DHT22;8207;52.494;4.654;2023-06-26T02:51:54;20.40;99.90
16200;DHT22;8207;52.494;4.654;2023-06-26T02:54:21;20.40;99.90
16200;DHT22;8207;52.494;4.654;2023-06-26T02:56:48;20.50;99.90
16200;DHT22;8207;52.494;4.654;2023-06-26T02:59:15;20.50;99.90
16200;DHT22;8207;52.494;4.654;2023-06-26T03:01:43;20.40;99.90
16200;DHT22;8207;52.494;4.654;2023-06-26T03:04:10;20.40;99.90
16200;DHT22;8207;52.494;4.654;2023-06-26T03:06:37;20.30;99.90
16200;DHT22;8207;52.494;4.654;2023-06-26T03:09:05;20.30;99.90
16200;DHT22;8207;52.494;4.654;2023-06-26T03:11:32;20.20;99.90
16200;DHT22;8207;52.494;4.654;2023-06-26T03:13:59;20.20;99.90
16200;DHT22;8207;52.494;4.654;2023-06-26T03:16:26;20.10;99.90
16200;DHT22;8207;52.494;4.654;2023-06-26T03:18:53;20.10;99.90
16200;DHT22;8207;52.494;4.654;2023-06-26T03:21:20;20.00;99.90
16200;DHT22;8207;52.494;4.654;2023-06-26T03:23:47;20.00;99.90
16200;DHT22;8207;52.494;4.654;2023-06-26T03:26:15;19.90;99.90
16200;DHT22;8207;52.494;4.654;2023-06-26T03:28:42;19.90;99.90
16200;DHT22;8207;52.494;4.654;2023-06-26T03:31:09;20.00;99.90
16200;DHT22;8207;52.494;4.654;2023-06-26T03:33:37;20.00;99.90
16200;DHT22;8207;52.494;4.654;2023-06-26T03:36:04;19.90;99.90
16200;DHT22;8207;52.494;4.654;2023-06-26T03:38:32;19.90;99.90
16200;DHT22;8207;52.494;4.654;2023-06-26T03:40:59;19.90;99.90
16200;DHT22;8207;52.494;4.654;2023-06-26T03:43:28;19.80;99.90
16200;DHT22;8207;52.494;4.654;2023-06-26T03:45:55;19.70;99.90
16200;DHT22;8207;52.494;4.654;2023-06-26T03:48:22;19.70;99.90
16200;DHT22;8207;52.494;4.654;2023-06-26T03:50:50;19.70;99.90
16200;DHT22;8207;52.494;4.654;2023-06-26T03:53:18;19.60;99.90
16200;DHT22;8207;52.494;4.654;2023-06-26T03:55:45;19.60;99.90
16200;DHT22;8207;52.494;4.654;2023-06-26T03:58:12;19.50;99.90
16200;DHT22;8207;52.494;4.654;2023-06-26T04:00:40;19.50;99.90
16200;DHT22;8207;52.494;4.654;2023-06-26T04:03:07;19.50;99.90
16200;DHT22;8207;52.494;4.654;2023-06-26T04:05:34;19.50;99.90
16200;DHT22;8207;52.494;4.654;2023-06-26T04:08:01;19.50;99.90
16200;DHT22;8207;52.494;4.654;2023-06-26T04:10:28;19.50;99.90
16200;DHT22;8207;52.494;4.654;2023-06-26T04:12:55;19.50;99.90
16200;DHT22;8207;52.494;4.654;2023-06-26T04:15:22;19.40;99.90
16200;DHT22;8207;52.494;4.654;2023-06-26T04:17:50;19.40;99.90
16200;DHT22;8207;52.494;4.654;2023-06-26T04:20:17;19.50;99.90
16200;DHT22;8207;52.494;4.654;2023-06-26T04:22:44;19.50;99.90
16200;DHT22;8207;52.494;4.654;2023-06-26T04:25:11;19.50;99.90
16200;DHT22;8207;52.494;4.654;2023-06-26T04:27:38;19.50;99.90
16200;DHT22;8207;52.494;4.654;2023-06-26T04:30:07;19.50;99.90
16200;DHT22;8207;52.494;4.654;2023-06-26T04:32:34;19.60;99.90
16200;DHT22;8207;52.494;4.654;2023-06-26T04:35:02;19.60;99.90
16200;DHT22;8207;52.494;4.654;2023-06-26T04:37:30;19.70;99.90
16200;DHT22;8207;52.494;4.654;2023-06-26T04:39:57;19.70;99.90
16200;DHT22;8207;52.494;4.654;2023-06-26T04:42:24;19.70;99.90
16200;DHT22;8207;52.494;4.654;2023-06-26T04:44:51;19.70;99.90
16200;DHT22;8207;52.494;4.654;2023-06-26T04:47:18;19.70;99.90
16200;DHT22;8207;52.494;4.654;2023-06-26T04:49:45;19.70;99.90
16200;DHT22;8207;52.494;4.654;2023-06-26T04:52:14;19.80;99.90
16200;DHT22;8207;52.494;4.654;2023-06-26T04:54:41;19.80;99.90
16200;DHT22;8207;52.494;4.654;2023-06-26T04:57:08;19.80;99.90
16200;DHT22;8207;52.494;4.654;2023-06-26T04:59:37;19.80;99.90
16200;DHT22;8207;52.494;4.654;2023-06-26T05:02:04;19.90;99.90
16200;DHT22;8207;52.494;4.654;2023-06-26T05:04:31;19.90;99.90
16200;DHT22;8207;52.494;4.654;2023-06-26T05:06:58;20.00;99.90
16200;DHT22;8207;52.494;4.654;2023-06-26T05:09:27;20.00;99.90
16200;DHT22;8207;52.494;4.654;2023-06-26T05:11:54;20.10;99.90
16200;DHT22;8207;52.494;4.654;2023-06-26T05:14:21;20.10;99.90
16200;DHT22;8207;52.494;4.654;2023-06-26T05:16:48;20.20;99.90
16200;DHT22;8207;52.494;4.654;2023-06-26T05:19:15;20.20;99.90
16200;DHT22;8207;52.494;4.654;2023-06-26T05:21:42;20.20;99.90
16200;DHT22;8207;52.494;4.654;2023-06-26T05:24:11;20.30;99.90
16200;DHT22;8207;52.494;4.654;2023-06-26T05:26:41;20.30;99.90
16200;DHT22;8207;52.494;4.654;2023-06-26T05:29:08;20.40;99.90
16200;DHT22;8207;52.494;4.654;2023-06-26T05:31:38;20.50;99.90
16200;DHT22;8207;52.494;4.654;2023-06-26T05:34:07;20.60;99.90
16200;DHT22;8207;52.494;4.654;2023-06-26T05:36:37;20.80;99.90
16200;DHT22;8207;52.494;4.654;2023-06-26T05:39:06;21.00;99.90
16200;DHT22;8207;52.494;4.654;2023-06-26T05:41:33;21.20;99.90
16200;DHT22;8207;52.494;4.654;2023-06-26T05:44:01;21.40;99.90
16200;DHT22;8207;52.494;4.654;2023-06-26T05:46:29;21.60;99.90
16200;DHT22;8207;52.494;4.654;2023-06-26T05:48:56;21.80;99.90
16200;DHT22;8207;52.494;4.654;2023-06-26T05:51:23;21.90;99.90
16200;DHT22;8207;52.494;4.654;2023-06-26T05:53:51;22.10;99.90
16200;DHT22;8207;52.494;4.654;2023-06-26T05:56:18;22.30;99.90
16200;DHT22;8207;52.494;4.654;2023-06-26T05:58:46;22.50;99.90
16200;DHT22;8207;52.494;4.654;2023-06-26T06:01:14;22.50;99.90
16200;DHT22;8207;52.494;4.654;2023-06-26T06:03:41;22.50;99.90
16200;DHT22;8207;52.494;4.654;2023-06-26T06:06:08;22.50;99.90
16200;DHT22;8207;52.494;4.654;2023-06-26T06:08:35;22.40;99.90
16200;DHT22;8207;52.494;4.654;2023-06-26T06:11:02;22.40;99.90
16200;DHT22;8207;52.494;4.654;2023-06-26T06:13:29;22.40;99.90
16200;DHT22;8207;52.494;4.654;2023-06-26T06:15:56;22.30;99.90
16200;DHT22;8207;52.494;4.654;2023-06-26T06:18:24;22.40;99.90
16200;DHT22;8207;52.494;4.654;2023-06-26T06:20:51;22.40;99.90
16200;DHT22;8207;52.494;4.654;2023-06-26T06:23:27;22.30;99.90
16200;DHT22;8207;52.494;4.654;2023-06-26T06:25:54;22.20;99.90
16200;DHT22;8207;52.494;4.654;2023-06-26T06:28:21;21.90;99.90
16200;DHT22;8207;52.494;4.654;2023-06-26T06:30:48;21.90;99.90
16200;DHT22;8207;52.494;4.654;2023-06-26T06:33:15;22.00;99.90
16200;DHT22;8207;52.494;4.654;2023-06-26T06:35:44;22.20;99.90
16200;DHT22;8207;52.494;4.654;2023-06-26T06:38:11;22.50;99.90
16200;DHT22;8207;52.494;4.654;2023-06-26T06:40:38;22.60;99.90
16200;DHT22;8207;52.494;4.654;2023-06-26T06:43:05;22.70;99.90
16200;DHT22;8207;52.494;4.654;2023-06-26T06:45:32;22.80;99.90
16200;DHT22;8207;52.494;4.654;2023-06-26T06:47:59;22.80;99.90
16200;DHT22;8207;52.494;4.654;2023-06-26T06:50:26;22.90;99.90
16200;DHT22;8207;52.494;4.654;2023-06-26T06:52:54;23.10;99.90
16200;DHT22;8207;52.494;4.654;2023-06-26T06:55:21;23.20;99.90
16200;DHT22;8207;52.494;4.654;2023-06-26T06:57:49;23.30;99.90
16200;DHT22;8207;52.494;4.654;2023-06-26T07:00:17;23.20;99.90
16200;DHT22;8207;52.494;4.654;2023-06-26T07:02:45;23.30;99.90
16200;DHT22;8207;52.494;4.654;2023-06-26T07:05:12;23.50;99.90
16200;DHT22;8207;52.494;4.654;2023-06-26T07:07:40;23.60;99.90
16200;DHT22;8207;52.494;4.654;2023-06-26T07:10:10;23.60;99.90
16200;DHT22;8207;52.494;4.654;2023-06-26T07:12:38;23.60;99.90
16200;DHT22;8207;52.494;4.654;2023-06-26T07:15:06;23.60;99.90
16200;DHT22;8207;52.494;4.654;2023-06-26T07:17:33;23.70;99.90
16200;DHT22;8207;52.494;4.654;2023-06-26T07:20:01;23.90;99.90
16200;DHT22;8207;52.494;4.654;2023-06-26T07:22:32;24.10;99.90
16200;DHT22;8207;52.494;4.654;2023-06-26T07:24:59;24.30;99.90
16200;DHT22;8207;52.494;4.654;2023-06-26T07:27:27;24.40;99.90
16200;DHT22;8207;52.494;4.654;2023-06-26T07:29:54;24.50;99.90
16200;DHT22;8207;52.494;4.654;2023-06-26T07:32:21;24.70;99.90
16200;DHT22;8207;52.494;4.654;2023-06-26T07:34:49;24.70;99.90
16200;DHT22;8207;52.494;4.654;2023-06-26T07:37:16;24.70;99.90
16200;DHT22;8207;52.494;4.654;2023-06-26T07:39:44;24.40;99.90
16200;DHT22;8207;52.494;4.654;2023-06-26T07:42:11;24.30;99.90
16200;DHT22;8207;52.494;4.654;2023-06-26T07:44:41;24.00;99.90
16200;DHT22;8207;52.494;4.654;2023-06-26T07:47:08;24.00;99.90
16200;DHT22;8207;52.494;4.654;2023-06-26T07:49:35;24.00;99.90
16200;DHT22;8207;52.494;4.654;2023-06-26T07:52:02;24.00;99.90
16200;DHT22;8207;52.494;4.654;2023-06-26T07:54:29;23.90;99.90
16200;DHT22;8207;52.494;4.654;2023-06-26T07:56:56;23.90;99.90
16200;DHT22;8207;52.494;4.654;2023-06-26T07:59:25;24.10;99.90
16200;DHT22;8207;52.494;4.654;2023-06-26T08:01:55;24.00;99.90
16200;DHT22;8207;52.494;4.654;2023-06-26T08:04:24;23.90;99.90
16200;DHT22;8207;52.494;4.654;2023-06-26T08:06:53;23.60;99.90
16200;DHT22;8207;52.494;4.654;2023-06-26T08:09:21;23.70;99.90
16200;DHT22;8207;52.494;4.654;2023-06-26T08:11:49;23.70;99.90
16200;DHT22;8207;52.494;4.654;2023-06-26T08:14:16;23.60;99.90
16200;DHT22;8207;52.494;4.654;2023-06-26T08:16:44;23.70;99.90
16200;DHT22;8207;52.494;4.654;2023-06-26T08:19:13;23.70;99.90
16200;DHT22;8207;52.494;4.654;2023-06-26T08:21:40;24.00;99.90
16200;DHT22;8207;52.494;4.654;2023-06-26T08:24:08;24.30;99.90
16200;DHT22;8207;52.494;4.654;2023-06-26T08:26:35;24.40;99.90
16200;DHT22;8207;52.494;4.654;2023-06-26T08:29:03;24.60;99.90
16200;DHT22;8207;52.494;4.654;2023-06-26T08:31:33;24.60;99.90
16200;DHT22;8207;52.494;4.654;2023-06-26T08:34:00;24.60;99.90
16200;DHT22;8207;52.494;4.654;2023-06-26T08:36:29;24.70;99.90
16200;DHT22;8207;52.494;4.654;2023-06-26T08:38:56;25.00;99.90
16200;DHT22;8207;52.494;4.654;2023-06-26T08:41:23;25.00;99.90
16200;DHT22;8207;52.494;4.654;2023-06-26T08:43:50;24.90;99.90
16200;DHT22;8207;52.494;4.654;2023-06-26T08:46:18;24.80;99.90
16200;DHT22;8207;52.494;4.654;2023-06-26T08:48:51;24.70;99.90
16200;DHT22;8207;52.494;4.654;2023-06-26T08:51:23;24.70;99.90
16200;DHT22;8207;52.494;4.654;2023-06-26T08:53:56;24.60;99.90
16200;DHT22;8207;52.494;4.654;2023-06-26T08:56:24;24.70;99.90
16200;DHT22;8207;52.494;4.654;2023-06-26T08:58:52;24.50;99.90
16200;DHT22;8207;52.494;4.654;2023-06-26T09:01:19;24.70;99.90
16200;DHT22;8207;52.494;4.654;2023-06-26T09:03:47;24.80;99.90
16200;DHT22;8207;52.494;4.654;2023-06-26T09:06:14;24.80;99.90
16200;DHT22;8207;52.494;4.654;2023-06-26T09:08:41;24.70;99.90
16200;DHT22;8207;52.494;4.654;2023-06-26T09:11:09;24.70;99.90
16200;DHT22;8207;52.494;4.654;2023-06-26T09:13:36;24.70;99.90
16200;DHT22;8207;52.494;4.654;2023-06-26T09:16:06;24.80;99.90
16200;DHT22;8207;52.494;4.654;2023-06-26T09:18:33;24.70;99.90
16200;DHT22;8207;52.494;4.654;2023-06-26T09:21:04;24.90;99.90
16200;DHT22;8207;52.494;4.654;2023-06-26T09:23:32;25.00;99.90
16200;DHT22;8207;52.494;4.654;2023-06-26T09:26:02;25.10;99.90
16200;DHT22;8207;52.494;4.654;2023-06-26T09:28:31;25.30;99.90
16200;DHT22;8207;52.494;4.654;2023-06-26T09:31:01;25.10;99.90
16200;DHT22;8207;52.494;4.654;2023-06-26T09:33:33;25.10;99.90
16200;DHT22;8207;52.494;4.654;2023-06-26T09:36:01;24.90;99.90
16200;DHT22;8207;52.494;4.654;2023-06-26T09:38:31;24.70;99.90
16200;DHT22;8207;52.494;4.654;2023-06-26T09:40:58;24.80;99.90
16200;DHT22;8207;52.494;4.654;2023-06-26T09:43:25;24.70;99.90
16200;DHT22;8207;52.494;4.654;2023-06-26T09:45:54;24.70;99.90
16200;DHT22;8207;52.494;4.654;2023-06-26T09:48:21;24.60;99.90
16200;DHT22;8207;52.494;4.654;2023-06-26T09:50:48;24.50;99.90
16200;DHT22;8207;52.494;4.654;2023-06-26T09:53:15;24.60;99.90
16200;DHT22;8207;52.494;4.654;2023-06-26T09:55:44;24.80;99.90
16200;DHT22;8207;52.494;4.654;2023-06-26T09:58:12;24.80;99.90
16200;DHT22;8207;52.494;4.654;2023-06-26T10:00:41;24.50;99.90
16200;DHT22;8207;52.494;4.654;2023-06-26T10:03:10;24.30;99.90
16200;DHT22;8207;52.494;4.654;2023-06-26T10:05:38;24.40;99.90
16200;DHT22;8207;52.494;4.654;2023-06-26T10:08:05;24.40;99.90
16200;DHT22;8207;52.494;4.654;2023-06-26T10:10:35;24.40;99.90
16200;DHT22;8207;52.494;4.654;2023-06-26T10:13:07;24.40;99.90
16200;DHT22;8207;52.494;4.654;2023-06-26T10:15:35;24.50;99.90
16200;DHT22;8207;52.494;4.654;2023-06-26T10:18:03;24.40;99.90
16200;DHT22;8207;52.494;4.654;2023-06-26T10:20:32;24.40;99.90
16200;DHT22;8207;52.494;4.654;2023-06-26T10:23:01;24.40;99.90
16200;DHT22;8207;52.494;4.654;2023-06-26T10:25:30;24.40;99.90
16200;DHT22;8207;52.494;4.654;2023-06-26T10:28:00;24.30;99.90
16200;DHT22;8207;52.494;4.654;2023-06-26T10:30:32;24.30;99.90
16200;DHT22;8207;52.494;4.654;2023-06-26T10:33:00;24.20;99.90
16200;DHT22;8207;52.494;4.654;2023-06-26T10:35:28;24.20;99.90
16200;DHT22;8207;52.494;4.654;2023-06-26T10:38:02;24.40;99.90
16200;DHT22;8207;52.494;4.654;2023-06-26T10:40:41;24.70;99.90
16200;DHT22;8207;52.494;4.654;2023-06-26T10:43:11;24.70;99.90
16200;DHT22;8207;52.494;4.654;2023-06-26T10:45:43;24.80;99.90
16200;DHT22;8207;52.494;4.654;2023-06-26T10:48:13;24.70;99.90
16200;DHT22;8207;52.494;4.654;2023-06-26T10:50:43;24.40;99.90
16200;DHT22;8207;52.494;4.654;2023-06-26T10:53:23;24.10;99.90
16200;DHT22;8207;52.494;4.654;2023-06-26T10:55:57;23.70;99.90
16200;DHT22;8207;52.494;4.654;2023-06-26T10:58:33;23.80;99.90
16200;DHT22;8207;52.494;4.654;2023-06-26T11:01:19;23.60;99.90
16200;DHT22;8207;52.494;4.654;2023-06-26T11:03:48;23.60;99.90
16200;DHT22;8207;52.494;4.654;2023-06-26T11:06:19;23.30;99.90
16200;DHT22;8207;52.494;4.654;2023-06-26T11:08:48;23.30;99.90
16200;DHT22;8207;52.494;4.654;2023-06-26T11:11:15;23.40;99.90
16200;DHT22;8207;52.494;4.654;2023-06-26T11:13:45;23.40;99.90
16200;DHT22;8207;52.494;4.654;2023-06-26T11:16:12;23.50;99.90
16200;DHT22;8207;52.494;4.654;2023-06-26T11:18:40;23.50;99.90
16200;DHT22;8207;52.494;4.654;2023-06-26T11:21:07;23.70;99.90
16200;DHT22;8207;52.494;4.654;2023-06-26T11:23:36;23.70;99.90
16200;DHT22;8207;52.494;4.654;2023-06-26T11:26:18;23.70;99.90
16200;DHT22;8207;52.494;4.654;2023-06-26T11:28:50;23.60;99.90
16200;DHT22;8207;52.494;4.654;2023-06-26T11:31:25;23.70;99.90
16200;DHT22;8207;52.494;4.654;2023-06-26T11:33:53;23.70;99.90
16200;DHT22;8207;52.494;4.654;2023-06-26T11:36:19;23.60;99.90
16200;DHT22;8207;52.494;4.654;2023-06-26T11:38:53;23.60;99.90
16200;DHT22;8207;52.494;4.654;2023-06-26T11:41:22;23.40;99.90
16200;DHT22;8207;52.494;4.654;2023-06-26T11:43:49;23.50;99.90
16200;DHT22;8207;52.494;4.654;2023-06-26T11:46:18;23.70;99.90
16200;DHT22;8207;52.494;4.654;2023-06-26T11:48:45;23.80;99.90
16200;DHT22;8207;52.494;4.654;2023-06-26T11:51:12;23.70;99.90
16200;DHT22;8207;52.494;4.654;2023-06-26T11:53:41;23.50;99.90
16200;DHT22;8207;52.494;4.654;2023-06-26T11:56:09;23.20;99.90
16200;DHT22;8207;52.494;4.654;2023-06-26T11:58:56;23.00;99.90
16200;DHT22;8207;52.494;4.654;2023-06-26T12:01:23;23.00;99.90
16200;DHT22;8207;52.494;4.654;2023-06-26T12:03:51;23.00;99.90
16200;DHT22;8207;52.494;4.654;2023-06-26T12:06:18;23.00;99.90
16200;DHT22;8207;52.494;4.654;2023-06-26T12:08:45;23.10;99.90
16200;DHT22;8207;52.494;4.654;2023-06-26T12:11:13;23.20;99.90
16200;DHT22;8207;52.494;4.654;2023-06-26T12:13:41;23.00;99.90
16200;DHT22;8207;52.494;4.654;2023-06-26T12:16:08;22.90;99.90
16200;DHT22;8207;52.494;4.654;2023-06-26T12:18:35;22.90;99.90
16200;DHT22;8207;52.494;4.654;2023-06-26T12:21:03;23.00;99.90
16200;DHT22;8207;52.494;4.654;2023-06-26T12:23:33;23.00;99.90
16200;DHT22;8207;52.494;4.654;2023-06-26T12:26:16;23.00;99.90
16200;DHT22;8207;52.494;4.654;2023-06-26T12:28:46;23.20;99.90
16200;DHT22;8207;52.494;4.654;2023-06-26T12:31:14;23.20;99.90
16200;DHT22;8207;52.494;4.654;2023-06-26T12:33:42;23.10;99.90
16200;DHT22;8207;52.494;4.654;2023-06-26T12:36:11;23.20;99.90
16200;DHT22;8207;52.494;4.654;2023-06-26T12:38:38;23.40;99.90
16200;DHT22;8207;52.494;4.654;2023-06-26T12:41:05;23.50;99.90
16200;DHT22;8207;52.494;4.654;2023-06-26T12:43:38;23.70;99.90
16200;DHT22;8207;52.494;4.654;2023-06-26T12:46:07;23.60;99.90
16200;DHT22;8207;52.494;4.654;2023-06-26T12:48:38;23.60;99.90
16200;DHT22;8207;52.494;4.654;2023-06-26T12:51:10;23.50;99.90
16200;DHT22;8207;52.494;4.654;2023-06-26T12:53:37;23.50;99.90
16200;DHT22;8207;52.494;4.654;2023-06-26T12:56:06;23.60;99.90
16200;DHT22;8207;52.494;4.654;2023-06-26T12:58:33;23.50;99.90
16200;DHT22;8207;52.494;4.654;2023-06-26T13:01:02;23.60;99.90
16200;DHT22;8207;52.494;4.654;2023-06-26T13:03:31;23.60;99.90
16200;DHT22;8207;52.494;4.654;2023-06-26T13:05:58;23.80;99.90
16200;DHT22;8207;52.494;4.654;2023-06-26T13:08:25;24.00;99.90
16200;DHT22;8207;52.494;4.654;2023-06-26T13:10:53;23.90;99.90
16200;DHT22;8207;52.494;4.654;2023-06-26T13:13:20;24.00;99.90
16200;DHT22;8207;52.494;4.654;2023-06-26T13:15:47;24.10;99.90
16200;DHT22;8207;52.494;4.654;2023-06-26T13:18:14;24.30;99.90
16200;DHT22;8207;52.494;4.654;2023-06-26T13:20:43;24.10;99.90
16200;DHT22;8207;52.494;4.654;2023-06-26T13:23:10;24.10;99.90
16200;DHT22;8207;52.494;4.654;2023-06-26T13:25:36;24.00;99.90
16200;DHT22;8207;52.494;4.654;2023-06-26T13:28:04;23.90;99.90
16200;DHT22;8207;52.494;4.654;2023-06-26T13:30:30;23.90;99.90
16200;DHT22;8207;52.494;4.654;2023-06-26T13:32:57;23.90;99.90
16200;DHT22;8207;52.494;4.654;2023-06-26T13:35:24;23.80;99.90
16200;DHT22;8207;52.494;4.654;2023-06-26T13:37:53;23.80;99.90
16200;DHT22;8207;52.494;4.654;2023-06-26T13:40:20;23.80;99.90
16200;DHT22;8207;52.494;4.654;2023-06-26T13:42:46;23.80;99.90
16200;DHT22;8207;52.494;4.654;2023-06-26T13:45:13;23.80;99.90
16200;DHT22;8207;52.494;4.654;2023-06-26T13:47:40;23.60;99.90
16200;DHT22;8207;52.494;4.654;2023-06-26T13:50:08;23.60;99.90
16200;DHT22;8207;52.494;4.654;2023-06-26T13:52:35;23.60;99.90
16200;DHT22;8207;52.494;4.654;2023-06-26T13:55:05;23.80;99.90
16200;DHT22;8207;52.494;4.654;2023-06-26T13:57:33;23.90;99.90
16200;DHT22;8207;52.494;4.654;2023-06-26T14:00:00;23.90;99.90
16200;DHT22;8207;52.494;4.654;2023-06-26T14:02:28;23.80;99.90
16200;DHT22;8207;52.494;4.654;2023-06-26T14:04:55;23.60;99.90
16200;DHT22;8207;52.494;4.654;2023-06-26T14:07:22;23.50;99.90
16200;DHT22;8207;52.494;4.654;2023-06-26T14:09:50;23.50;99.90
16200;DHT22;8207;52.494;4.654;2023-06-26T14:12:18;23.30;99.90
16200;DHT22;8207;52.494;4.654;2023-06-26T14:14:45;23.20;99.90
16200;DHT22;8207;52.494;4.654;2023-06-26T14:17:12;23.20;99.90
16200;DHT22;8207;52.494;4.654;2023-06-26T14:19:41;23.30;99.90
16200;DHT22;8207;52.494;4.654;2023-06-26T14:22:08;23.30;99.90
16200;DHT22;8207;52.494;4.654;2023-06-26T14:24:35;23.20;99.90
16200;DHT22;8207;52.494;4.654;2023-06-26T14:27:03;23.30;99.90
16200;DHT22;8207;52.494;4.654;2023-06-26T14:29:31;23.30;99.90
16200;DHT22;8207;52.494;4.654;2023-06-26T14:31:58;23.20;99.90
16200;DHT22;8207;52.494;4.654;2023-06-26T14:34:25;23.20;99.90
16200;DHT22;8207;52.494;4.654;2023-06-26T14:36:52;23.30;99.90
16200;DHT22;8207;52.494;4.654;2023-06-26T14:39:19;23.30;99.90
16200;DHT22;8207;52.494;4.654;2023-06-26T14:41:46;23.40;99.90
16200;DHT22;8207;52.494;4.654;2023-06-26T14:44:14;23.60;99.90
16200;DHT22;8207;52.494;4.654;2023-06-26T14:46:42;23.60;99.90
16200;DHT22;8207;52.494;4.654;2023-06-26T14:49:09;23.40;99.90
16200;DHT22;8207;52.494;4.654;2023-06-26T14:51:37;23.40;99.90
16200;DHT22;8207;52.494;4.654;2023-06-26T14:54:05;23.40;99.90
16200;DHT22;8207;52.494;4.654;2023-06-26T14:56:32;23.40;99.90
16200;DHT22;8207;52.494;4.654;2023-06-26T14:58:59;23.20;99.90
16200;DHT22;8207;52.494;4.654;2023-06-26T15:01:26;23.20;99.90
16200;DHT22;8207;52.494;4.654;2023-06-26T15:03:54;23.20;99.90
16200;DHT22;8207;52.494;4.654;2023-06-26T15:06:21;23.20;99.90
16200;DHT22;8207;52.494;4.654;2023-06-26T15:08:48;23.20;99.90
16200;DHT22;8207;52.494;4.654;2023-06-26T15:11:15;23.30;99.90
16200;DHT22;8207;52.494;4.654;2023-06-26T15:13:42;23.30;99.90
16200;DHT22;8207;52.494;4.654;2023-06-26T15:16:09;23.40;99.90
16200;DHT22;8207;52.494;4.654;2023-06-26T15:18:36;23.10;99.90
16200;DHT22;8207;52.494;4.654;2023-06-26T15:21:04;23.00;99.90
16200;DHT22;8207;52.494;4.654;2023-06-26T15:23:31;22.80;99.90
16200;DHT22;8207;52.494;4.654;2023-06-26T15:25:58;22.70;99.90
16200;DHT22;8207;52.494;4.654;2023-06-26T15:28:25;22.70;99.90
16200;DHT22;8207;52.494;4.654;2023-06-26T15:30:52;22.70;99.90
16200;DHT22;8207;52.494;4.654;2023-06-26T15:33:19;22.60;99.90
16200;DHT22;8207;52.494;4.654;2023-06-26T15:35:46;22.70;99.90
16200;DHT22;8207;52.494;4.654;2023-06-26T15:38:14;22.70;99.90
16200;DHT22;8207;52.494;4.654;2023-06-26T15:40:41;22.60;99.90
16200;DHT22;8207;52.494;4.654;2023-06-26T15:43:08;22.50;99.90
16200;DHT22;8207;52.494;4.654;2023-06-26T15:45:35;22.50;99.90
16200;DHT22;8207;52.494;4.654;2023-06-26T15:48:03;22.40;99.90
16200;DHT22;8207;52.494;4.654;2023-06-26T15:50:30;22.40;99.90